Time;durP1;ratioP1;P1;durP2;ratioP2;P2;SDS_P1;SDS_P2;PMS_P1;PMS_P2;Temp;Humidity;BMP_temperature;BMP_pressure;BME280_temperature;BME280_humidity;BME280_pressure;Samples;Min_cycle;Max_cycle;Signal;HPM_P1;HPM_P2
2023/06/17 00:01:17;;;;;;;3.33;3.03;;;;;;;;;;5019937;28;20090;-77
2023/06/17 00:03:43;;;;;;;3.67;3.33;;;;;;;;;;5000874;28;20041;-77
2023/06/17 00:06:09;;;;;;;5.07;4.50;;;;;;;;;;5000287;28;20138;-78
2023/06/17 00:08:35;;;;;;;4.57;4.07;;;;;;;;;;5014361;28;20037;-78
2023/06/17 00:11:00;;;;;;;6.32;4.28;;;;;;;;;;5017134;28;20072;-78
2023/06/17 00:13:26;;;;;;;5.00;4.35;;;;;;;;;;5007477;28;20042;-78
2023/06/17 00:15:53;;;;;;;3.90;3.42;;;;;;;;;;5016597;28;20033;-78
2023/06/17 00:18:19;;;;;;;4.07;3.67;;;;;;;;;;5018886;28;20551;-78
2023/06/17 00:20:48;;;;;;;4.95;4.43;;;;;;;;;;4991689;28;20047;-78
2023/06/17 00:23:13;;;;;;;3.17;2.85;;;;;;;;;;5022921;28;20029;-78
2023/06/17 00:25:38;;;;;;;4.20;3.40;;;;;;;;;;5019929;28;20049;-78
2023/06/17 00:28:04;;;;;;;4.90;4.07;;;;;;;;;;5024741;28;20033;-78
2023/06/17 00:30:29;;;;;;;8.07;4.72;;;;;;;;;;5020465;28;20033;-78
2023/06/17 00:32:55;;;;;;;6.13;4.45;;;;;;;;;;5009586;28;20095;-78
2023/06/17 00:35:20;;;;;;;3.90;3.58;;;;;;;;;;5020043;28;20057;-78
2023/06/17 00:37:46;;;;;;;6.13;4.95;;;;;;;;;;5017206;28;20042;-78
2023/06/17 00:40:12;;;;;;;4.72;4.15;;;;;;;;;;5022429;28;20030;-77
2023/06/17 00:42:37;;;;;;;4.43;4.03;;;;;;;;;;5026214;28;20065;-76
2023/06/17 00:45:03;;;;;;;5.93;4.10;;;;;;;;;;5030231;28;20643;-76
2023/06/17 00:47:30;;;;;;;5.65;4.97;;;;;;;;;;5011910;28;20049;-75
2023/06/17 00:49:56;;;;;;;5.40;4.90;;;;;;;;;;5020321;28;20044;-76
2023/06/17 00:52:21;;;;;;;5.60;4.07;;;;;;;;;;5008073;28;20034;-76
2023/06/17 00:54:47;;;;;;;6.30;5.20;;;;;;;;;;5017803;28;20057;-76
2023/06/17 00:57:13;;;;;;;3.00;2.80;;;;;;;;;;5024964;28;20029;-76
2023/06/17 00:59:42;;;;;;;5.13;4.55;;;;;;;;;;5023867;28;20037;-76
2023/06/17 01:02:09;;;;;;;4.07;3.03;;;;;;;;;;5009125;28;20485;-76
2023/06/17 01:04:37;;;;;;;3.03;2.80;;;;;;;;;;5016542;28;20494;-76
2023/06/17 01:07:23;;;;;;;8.27;3.95;;;;;;;;;;5018780;28;20041;-75
2023/06/17 01:09:55;;;;;;;3.42;3.13;;;;;;;;;;5003991;28;20057;-76
2023/06/17 01:12:24;;;;;;;6.03;4.50;;;;;;;;;;5011735;28;20033;-76
2023/06/17 01:14:53;;;;;;;3.33;2.95;;;;;;;;;;5022340;28;20161;-76
2023/06/17 01:17:19;;;;;;;4.18;3.53;;;;;;;;;;5013065;28;20533;-76
2023/06/17 01:19:48;;;;;;;6.38;5.32;;;;;;;;;;5005033;28;20096;-76
2023/06/17 01:22:15;;;;;;;5.40;4.43;;;;;;;;;;5001271;28;20523;-76
2023/06/17 01:24:41;;;;;;;4.10;3.70;;;;;;;;;;5005588;28;20116;-75
2023/06/17 01:27:08;;;;;;;7.18;4.88;;;;;;;;;;5016182;28;20061;-74
2023/06/17 01:29:36;;;;;;;7.78;5.68;;;;;;;;;;5020393;28;20124;-75
2023/06/17 01:32:05;;;;;;;3.92;3.13;;;;;;;;;;5022858;28;20040;-75
2023/06/17 01:34:39;;;;;;;4.35;3.00;;;;;;;;;;5018886;28;20434;-75
2023/06/17 01:37:08;;;;;;;4.57;3.97;;;;;;;;;;5018131;28;20072;-75
2023/06/17 01:39:36;;;;;;;4.57;4.03;;;;;;;;;;4991163;28;20045;-75
2023/06/17 01:42:02;;;;;;;4.55;3.67;;;;;;;;;;5004160;28;20494;-75
2023/06/17 01:44:29;;;;;;;3.67;2.97;;;;;;;;;;5035382;28;20033;-75
2023/06/17 01:46:55;;;;;;;7.00;4.80;;;;;;;;;;5008962;28;20054;-75
2023/06/17 01:49:20;;;;;;;8.20;5.80;;;;;;;;;;5012342;28;20092;-75
2023/06/17 01:51:46;;;;;;;8.60;5.57;;;;;;;;;;5014380;28;20071;-75
2023/06/17 01:54:11;;;;;;;4.32;3.90;;;;;;;;;;4995960;28;20091;-74
2023/06/17 01:56:37;;;;;;;9.23;6.05;;;;;;;;;;5004146;28;20498;-75
2023/06/17 01:59:02;;;;;;;3.28;2.97;;;;;;;;;;5006627;28;20098;-76
2023/06/17 02:01:27;;;;;;;5.18;3.63;;;;;;;;;;5019087;28;20029;-74
2023/06/17 02:03:53;;;;;;;7.90;5.68;;;;;;;;;;5032665;28;20407;-74
2023/06/17 02:06:18;;;;;;;5.05;4.40;;;;;;;;;;5007527;28;20041;-76
2023/06/17 02:08:45;;;;;;;4.18;3.75;;;;;;;;;;5029562;28;20033;-75
2023/06/17 02:11:10;;;;;;;4.32;3.92;;;;;;;;;;5025417;28;20039;-75
2023/06/17 02:13:36;;;;;;;7.32;5.65;;;;;;;;;;5024566;28;20036;-74
2023/06/17 02:16:01;;;;;;;5.10;4.20;;;;;;;;;;5024844;28;20068;-75
2023/06/17 02:18:27;;;;;;;5.07;4.40;;;;;;;;;;5022076;28;20045;-76
2023/06/17 02:20:52;;;;;;;4.90;3.67;;;;;;;;;;5009478;28;20041;-74
2023/06/17 02:23:18;;;;;;;6.68;4.88;;;;;;;;;;5020554;28;20518;-74
2023/06/17 02:25:43;;;;;;;4.72;4.15;;;;;;;;;;5003232;28;20072;-75
2023/06/17 02:28:08;;;;;;;4.10;3.63;;;;;;;;;;5019909;28;20040;-75
2023/06/17 02:30:34;;;;;;;8.45;4.70;;;;;;;;;;5017493;28;20120;-75
2023/06/17 02:33:00;;;;;;;6.47;4.88;;;;;;;;;;5015352;28;20449;-75
2023/06/17 02:35:26;;;;;;;4.03;3.63;;;;;;;;;;5005750;28;20026;-74
2023/06/17 02:37:53;;;;;;;4.35;3.75;;;;;;;;;;5016390;28;20037;-75
2023/06/17 02:40:19;;;;;;;4.25;3.85;;;;;;;;;;5014580;28;20112;-76
2023/06/17 02:42:44;;;;;;;4.32;3.92;;;;;;;;;;5010932;28;20049;-76
2023/06/17 02:45:12;;;;;;;4.53;3.97;;;;;;;;;;5019261;28;20036;-74
2023/06/17 02:47:38;;;;;;;3.00;2.80;;;;;;;;;;5017297;28;20041;-75
2023/06/17 02:50:05;;;;;;;3.38;2.95;;;;;;;;;;5010644;28;20095;-75
2023/06/17 02:52:31;;;;;;;3.70;2.70;;;;;;;;;;5016903;28;20375;-75
2023/06/17 02:54:56;;;;;;;5.30;4.80;;;;;;;;;;5018147;28;20079;-74
2023/06/17 02:57:22;;;;;;;3.22;2.92;;;;;;;;;;5017386;28;20130;-75
2023/06/17 02:59:47;;;;;;;3.80;3.45;;;;;;;;;;5016280;28;20115;-76
2023/06/17 03:02:14;;;;;;;4.07;3.53;;;;;;;;;;4992447;28;20048;-75
2023/06/17 03:04:39;;;;;;;3.75;3.45;;;;;;;;;;5016162;28;20091;-75
2023/06/17 03:07:06;;;;;;;4.30;3.13;;;;;;;;;;5017900;28;20064;-75
2023/06/17 03:09:31;;;;;;;3.88;3.55;;;;;;;;;;5029121;28;20040;-74
2023/06/17 03:12:02;;;;;;;7.88;4.95;;;;;;;;;;5020763;28;20587;-74
2023/06/17 03:14:29;;;;;;;5.85;4.53;;;;;;;;;;5022088;28;20028;-75
2023/06/17 03:16:57;;;;;;;8.95;6.32;;;;;;;;;;5004671;28;20038;-75
2023/06/17 03:19:25;;;;;;;6.18;4.47;;;;;;;;;;5003079;28;20091;-74
2023/06/17 03:21:51;;;;;;;8.05;6.72;;;;;;;;;;5018259;28;20517;-75
2023/06/17 03:24:17;;;;;;;3.90;3.53;;;;;;;;;;5021154;28;20078;-75
2023/06/17 03:26:42;;;;;;;5.68;4.38;;;;;;;;;;5016875;28;20525;-74
2023/06/17 03:29:08;;;;;;;3.47;3.17;;;;;;;;;;5018354;28;20049;-74
2023/06/17 03:31:33;;;;;;;5.00;4.35;;;;;;;;;;5018343;28;20258;-75
2023/06/17 03:33:59;;;;;;;5.80;5.18;;;;;;;;;;5029905;28;20163;-75
2023/06/17 03:36:28;;;;;;;5.57;4.55;;;;;;;;;;5018415;28;20048;-76
2023/06/17 03:38:54;;;;;;;6.75;5.28;;;;;;;;;;5022813;28;20110;-75
2023/06/17 03:41:20;;;;;;;4.00;3.50;;;;;;;;;;5026728;28;20041;-75
2023/06/17 03:43:45;;;;;;;3.63;3.33;;;;;;;;;;5003153;28;20044;-75
2023/06/17 03:46:11;;;;;;;11.23;7.07;;;;;;;;;;5024147;28;20048;-76
2023/06/17 03:48:36;;;;;;;7.57;6.43;;;;;;;;;;5004308;28;20076;-74
2023/06/17 03:51:02;;;;;;;5.38;4.70;;;;;;;;;;5024092;28;20120;-75
2023/06/17 03:53:28;;;;;;;6.25;5.10;;;;;;;;;;5020837;28;20034;-75
2023/06/17 03:55:53;;;;;;;6.85;6.15;;;;;;;;;;5022151;28;20128;-75
2023/06/17 03:58:19;;;;;;;5.75;4.90;;;;;;;;;;5009943;28;20124;-75
2023/06/17 04:00:44;;;;;;;4.97;4.47;;;;;;;;;;5029242;22;20127;-77
2023/06/17 04:03:11;;;;;;;6.93;6.22;;;;;;;;;;5016212;28;20104;-77
2023/06/17 04:05:37;;;;;;;5.65;4.72;;;;;;;;;;5017384;28;20501;-77
2023/06/17 04:08:04;;;;;;;6.75;5.50;;;;;;;;;;5005938;28;20095;-77
2023/06/17 04:10:29;;;;;;;5.68;4.88;;;;;;;;;;5020089;28;20037;-77
2023/06/17 04:12:55;;;;;;;4.40;4.00;;;;;;;;;;5009579;28;20526;-77
2023/06/17 04:15:20;;;;;;;6.78;5.05;;;;;;;;;;5022285;28;20109;-77
2023/06/17 04:17:46;;;;;;;5.95;5.35;;;;;;;;;;5022182;28;20524;-77
2023/06/17 04:20:12;;;;;;;5.80;5.20;;;;;;;;;;5026799;28;20034;-77
2023/06/17 04:22:41;;;;;;;7.30;5.65;;;;;;;;;;5008279;28;20121;-78
2023/06/17 04:25:09;;;;;;;5.15;4.65;;;;;;;;;;4990386;28;20071;-77
2023/06/17 04:27:36;;;;;;;4.43;3.90;;;;;;;;;;5007072;28;20121;-77
2023/06/17 04:30:02;;;;;;;6.43;5.57;;;;;;;;;;5019330;28;20354;-78
2023/06/17 04:32:28;;;;;;;8.15;6.25;;;;;;;;;;5018083;28;20052;-77
2023/06/17 04:34:53;;;;;;;4.75;4.18;;;;;;;;;;5018931;28;20038;-78
2023/06/17 04:37:20;;;;;;;5.07;4.35;;;;;;;;;;5001742;28;20048;-77
2023/06/17 04:39:45;;;;;;;6.05;4.25;;;;;;;;;;4970762;28;20042;-78
2023/06/17 04:42:12;;;;;;;4.53;4.00;;;;;;;;;;4998028;28;20041;-78
2023/06/17 04:44:38;;;;;;;6.97;5.13;;;;;;;;;;4990940;28;20034;-77
2023/06/17 04:47:05;;;;;;;5.38;4.72;;;;;;;;;;4990891;28;20468;-77
2023/06/17 04:49:35;;;;;;;5.40;4.63;;;;;;;;;;5000068;28;20037;-77
2023/06/17 04:52:01;;;;;;;4.15;3.78;;;;;;;;;;4989148;28;20120;-77
2023/06/17 04:54:26;;;;;;;4.38;3.97;;;;;;;;;;4996920;28;20340;-78
2023/06/17 04:56:51;;;;;;;4.90;3.88;;;;;;;;;;4999219;28;20529;-78
2023/06/17 04:59:19;;;;;;;5.57;4.07;;;;;;;;;;4985043;28;20061;-78
2023/06/17 05:01:45;;;;;;;4.63;4.22;;;;;;;;;;4999142;28;20568;-77
2023/06/17 05:04:10;;;;;;;6.85;5.60;;;;;;;;;;4999681;28;20860;-78
2023/06/17 05:06:35;;;;;;;4.00;3.47;;;;;;;;;;4986058;28;20053;-78
2023/06/17 05:09:01;;;;;;;6.20;4.55;;;;;;;;;;5003300;28;20045;-79
2023/06/17 05:11:26;;;;;;;4.00;3.60;;;;;;;;;;4987624;28;20041;-79
2023/06/17 05:13:51;;;;;;;4.40;4.00;;;;;;;;;;4987230;28;20049;-79
2023/06/17 05:16:17;;;;;;;5.45;4.40;;;;;;;;;;4994918;28;20085;-79
2023/06/17 05:18:42;;;;;;;4.30;3.90;;;;;;;;;;5004488;28;20318;-78
2023/06/17 05:21:08;;;;;;;4.18;3.60;;;;;;;;;;4990105;28;20049;-77
2023/06/17 05:23:33;;;;;;;3.30;3.00;;;;;;;;;;4999586;28;20044;-78
2023/06/17 05:25:59;;;;;;;3.97;3.58;;;;;;;;;;5005554;28;20034;-79
2023/06/17 05:28:24;;;;;;;7.50;5.10;;;;;;;;;;5031167;28;20029;-80
2023/06/17 05:30:49;;;;;;;5.95;5.15;;;;;;;;;;5017480;28;20041;-78
2023/06/17 05:33:15;;;;;;;4.95;4.45;;;;;;;;;;5021180;28;20584;-79
2023/06/17 05:35:40;;;;;;;7.43;5.45;;;;;;;;;;5012099;28;20144;-78
2023/06/17 05:38:06;;;;;;;6.78;4.18;;;;;;;;;;5021108;28;20038;-77
2023/06/17 05:40:31;;;;;;;4.32;3.92;;;;;;;;;;5000130;28;20141;-77
2023/06/17 05:42:56;;;;;;;4.30;3.90;;;;;;;;;;5010396;28;20138;-79
2023/06/17 05:45:22;;;;;;;7.35;5.45;;;;;;;;;;5023975;28;20037;-78
2023/06/17 05:47:47;;;;;;;6.40;4.93;;;;;;;;;;5022271;28;20041;-77
2023/06/17 05:50:12;;;;;;;5.30;4.78;;;;;;;;;;5008816;28;20407;-78
2023/06/17 05:52:38;;;;;;;3.75;3.45;;;;;;;;;;5019988;28;20505;-77
2023/06/17 05:55:03;;;;;;;5.85;4.25;;;;;;;;;;5022258;28;20076;-78
2023/06/17 05:57:29;;;;;;;6.57;4.40;;;;;;;;;;5026729;28;20040;-79
2023/06/17 05:59:55;;;;;;;6.93;5.43;;;;;;;;;;5024673;28;20053;-79
2023/06/17 06:02:20;;;;;;;5.15;4.05;;;;;;;;;;5015488;28;20037;-77
2023/06/17 06:04:47;;;;;;;5.95;4.65;;;;;;;;;;4988893;28;20066;-78
2023/06/17 06:07:12;;;;;;;6.35;5.50;;;;;;;;;;5024903;28;20041;-78
2023/06/17 06:09:38;;;;;;;6.40;5.80;;;;;;;;;;5011633;28;20041;-80
2023/06/17 06:12:04;;;;;;;7.30;5.20;;;;;;;;;;5033563;28;20033;-78
2023/06/17 06:14:29;;;;;;;5.32;4.00;;;;;;;;;;5020374;28;20034;-78
2023/06/17 06:16:54;;;;;;;6.28;5.65;;;;;;;;;;5021118;28;20052;-79
2023/06/17 06:19:20;;;;;;;4.50;3.63;;;;;;;;;;5022057;28;20067;-79
2023/06/17 06:21:45;;;;;;;9.10;6.28;;;;;;;;;;5013076;28;20041;-79
2023/06/17 06:24:11;;;;;;;7.85;5.80;;;;;;;;;;5001202;28;20038;-79
2023/06/17 06:26:36;;;;;;;5.10;4.22;;;;;;;;;;5020413;28;20111;-80
2023/06/17 06:29:01;;;;;;;7.20;5.70;;;;;;;;;;5017556;28;20044;-79
2023/06/17 06:31:27;;;;;;;10.38;7.50;;;;;;;;;;5004859;28;20415;-79
2023/06/17 06:33:52;;;;;;;7.45;5.95;;;;;;;;;;4996967;28;20044;-78
2023/06/17 06:36:18;;;;;;;4.75;4.32;;;;;;;;;;5002582;28;20045;-76
2023/06/17 06:38:43;;;;;;;6.88;5.93;;;;;;;;;;5017981;28;20049;-78
2023/06/17 06:41:08;;;;;;;5.97;4.75;;;;;;;;;;5022379;28;20034;-79
2023/06/17 06:43:34;;;;;;;8.02;6.70;;;;;;;;;;5018234;28;20083;-79
2023/06/17 06:45:59;;;;;;;6.60;5.93;;;;;;;;;;5004344;28;20049;-78
2023/06/17 06:48:25;;;;;;;6.93;6.20;;;;;;;;;;5014935;28;20065;-77
2023/06/17 06:50:50;;;;;;;4.55;4.05;;;;;;;;;;5012945;28;20497;-77
2023/06/17 06:53:15;;;;;;;7.10;6.35;;;;;;;;;;5009195;28;20042;-76
2023/06/17 06:55:41;;;;;;;7.60;6.85;;;;;;;;;;5007466;28;20061;-77
2023/06/17 06:58:06;;;;;;;8.63;6.55;;;;;;;;;;4992938;28;20482;-76
2023/06/17 07:00:32;;;;;;;7.63;6.28;;;;;;;;;;4983579;28;20033;-76
2023/06/17 07:02:57;;;;;;;7.97;6.20;;;;;;;;;;4999396;28;20993;-76
2023/06/17 07:05:22;;;;;;;5.82;5.32;;;;;;;;;;4993369;28;20030;-77
2023/06/17 07:07:48;;;;;;;8.70;6.07;;;;;;;;;;5006634;28;20421;-77
2023/06/17 07:10:13;;;;;;;4.15;3.83;;;;;;;;;;4982690;28;20099;-77
2023/06/17 07:12:41;;;;;;;7.32;5.97;;;;;;;;;;4994936;28;20037;-77
2023/06/17 07:15:06;;;;;;;6.25;4.35;;;;;;;;;;5000977;28;20125;-76
2023/06/17 07:17:32;;;;;;;5.68;4.75;;;;;;;;;;5015237;28;20497;-76
2023/06/17 07:19:59;;;;;;;4.68;3.60;;;;;;;;;;5011766;28;20037;-77
2023/06/17 07:22:24;;;;;;;3.95;3.63;;;;;;;;;;4994724;28;20086;-77
2023/06/17 07:24:50;;;;;;;4.50;4.10;;;;;;;;;;4994868;28;20037;-76
2023/06/17 07:27:16;;;;;;;4.95;4.22;;;;;;;;;;5015631;28;20114;-76
2023/06/17 07:29:41;;;;;;;5.57;4.38;;;;;;;;;;4999493;28;20638;-77
2023/06/17 07:32:07;;;;;;;7.18;6.07;;;;;;;;;;5013802;28;20034;-77
2023/06/17 07:34:33;;;;;;;4.43;4.03;;;;;;;;;;5012336;28;20030;-76
2023/06/17 07:37:00;;;;;;;4.20;3.80;;;;;;;;;;5008686;28;20044;-76
2023/06/17 07:39:25;;;;;;;7.03;4.75;;;;;;;;;;5002281;28;20453;-77
2023/06/17 07:41:51;;;;;;;6.47;5.88;;;;;;;;;;5010794;28;20029;-76
2023/06/17 07:44:17;;;;;;;4.63;4.22;;;;;;;;;;4969273;28;20043;-77
2023/06/17 07:46:44;;;;;;;4.35;4.00;;;;;;;;;;5001957;28;20049;-76
2023/06/17 07:49:09;;;;;;;4.82;4.38;;;;;;;;;;5011996;28;20041;-77
2023/06/17 07:51:36;;;;;;;5.43;4.70;;;;;;;;;;5011441;28;20386;-76
2023/06/17 07:54:04;;;;;;;4.20;3.80;;;;;;;;;;5012247;28;20641;-76
2023/06/17 07:56:29;;;;;;;6.72;5.65;;;;;;;;;;5009927;28;20056;-76
2023/06/17 07:58:55;;;;;;;5.72;5.13;;;;;;;;;;5019638;28;20393;-76
2023/06/17 08:01:22;;;;;;;6.85;5.90;;;;;;;;;;5003341;28;20193;-76
2023/06/17 08:03:47;;;;;;;6.65;5.60;;;;;;;;;;4999673;28;20046;-77
2023/06/17 08:06:16;;;;;;;4.80;4.32;;;;;;;;;;5013261;28;20040;-77
2023/06/17 08:08:41;;;;;;;6.15;5.07;;;;;;;;;;5014881;28;20048;-77
2023/06/17 08:11:07;;;;;;;4.97;4.57;;;;;;;;;;5002977;28;20038;-76
2023/06/17 08:13:33;;;;;;;4.65;4.25;;;;;;;;;;5005813;28;20030;-76
2023/06/17 08:15:59;;;;;;;7.45;6.03;;;;;;;;;;5018733;28;20401;-77
2023/06/17 08:18:24;;;;;;;5.40;4.78;;;;;;;;;;5017831;28;20044;-77
2023/06/17 08:20:50;;;;;;;4.30;3.83;;;;;;;;;;5017489;28;20037;-77
2023/06/17 08:23:15;;;;;;;4.82;4.43;;;;;;;;;;5013083;28;20037;-77
2023/06/17 08:25:41;;;;;;;3.97;3.58;;;;;;;;;;5003555;28;20492;-77
2023/06/17 08:28:06;;;;;;;5.57;5.07;;;;;;;;;;5014880;28;20045;-77
2023/06/17 08:30:31;;;;;;;5.10;4.60;;;;;;;;;;5021055;28;20033;-76
2023/06/17 08:32:57;;;;;;;5.90;5.35;;;;;;;;;;5021013;28;20065;-77
2023/06/17 08:35:23;;;;;;;6.85;5.97;;;;;;;;;;5008473;28;20417;-77
2023/06/17 08:37:48;;;;;;;6.55;5.25;;;;;;;;;;5011527;28;20049;-77
2023/06/17 08:40:15;;;;;;;7.30;6.15;;;;;;;;;;5005250;28;20048;-76
2023/06/17 08:42:41;;;;;;;7.18;6.47;;;;;;;;;;5023806;28;20047;-76
2023/06/17 08:45:07;;;;;;;7.82;5.85;;;;;;;;;;5024582;28;20537;-76
2023/06/17 08:47:34;;;;;;;6.30;5.57;;;;;;;;;;5014476;28;20136;-76
2023/06/17 08:50:00;;;;;;;5.88;5.28;;;;;;;;;;4999705;28;20040;-77
2023/06/17 08:52:28;;;;;;;4.55;4.15;;;;;;;;;;5016121;28;20095;-76
2023/06/17 08:54:54;;;;;;;4.55;4.15;;;;;;;;;;5020312;28;20041;-77
2023/06/17 08:57:20;;;;;;;7.22;5.43;;;;;;;;;;5007697;28;20080;-77
2023/06/17 08:59:45;;;;;;;6.28;5.18;;;;;;;;;;4995869;28;20091;-77
2023/06/17 09:02:11;;;;;;;7.57;5.25;;;;;;;;;;5000997;28;20498;-76
2023/06/17 09:04:36;;;;;;;7.60;5.20;;;;;;;;;;5001638;28;20068;-77
2023/06/17 09:07:02;;;;;;;5.15;4.47;;;;;;;;;;4986171;28;20189;-76
2023/06/17 09:09:28;;;;;;;4.70;4.20;;;;;;;;;;4995052;28;20030;-76
2023/06/17 09:11:53;;;;;;;8.07;6.00;;;;;;;;;;4997622;28;20074;-76
2023/06/17 09:14:22;;;;;;;7.68;5.10;;;;;;;;;;4981551;28;20462;-76
2023/06/17 09:16:49;;;;;;;7.22;5.35;;;;;;;;;;4996412;28;20045;-77
2023/06/17 09:19:14;;;;;;;7.07;6.38;;;;;;;;;;4995020;28;20037;-76
2023/06/17 09:21:40;;;;;;;5.80;5.25;;;;;;;;;;4992386;28;20502;-76
2023/06/17 09:24:08;;;;;;;4.70;4.20;;;;;;;;;;4999317;28;20041;-76
2023/06/17 09:26:44;;;;;;;5.60;5.00;;;;;;;;;;4995265;28;20045;-75
2023/06/17 09:29:12;;;;;;;5.80;5.30;;;;;;;;;;4994614;28;20067;-74
2023/06/17 09:31:55;;;;;;;4.72;4.15;;;;;;;;;;4993172;28;20038;-74
2023/06/17 09:34:21;;;;;;;5.63;4.70;;;;;;;;;;4951335;28;20046;-75
2023/06/17 09:36:53;;;;;;;4.68;4.30;;;;;;;;;;4993675;28;20042;-76
2023/06/17 09:39:18;;;;;;;4.72;4.30;;;;;;;;;;4980377;28;20034;-76
2023/06/17 09:41:44;;;;;;;6.30;5.75;;;;;;;;;;4995820;28;20056;-76
2023/06/17 09:44:10;;;;;;;7.30;6.07;;;;;;;;;;4980796;28;20046;-75
2023/06/17 09:46:39;;;;;;;4.95;4.45;;;;;;;;;;4985955;28;20044;-76
2023/06/17 09:49:09;;;;;;;4.53;4.07;;;;;;;;;;4998391;28;20179;-75
2023/06/17 09:51:38;;;;;;;6.15;5.55;;;;;;;;;;4995855;28;20030;-77
2023/06/17 09:54:06;;;;;;;4.97;4.38;;;;;;;;;;4997305;28;20033;-76
2023/06/17 09:56:31;;;;;;;5.60;4.65;;;;;;;;;;4985636;28;20437;-77
2023/06/17 09:58:57;;;;;;;4.93;4.53;;;;;;;;;;4986281;28;20038;-76
2023/06/17 10:01:30;;;;;;;4.55;4.13;;;;;;;;;;5015362;23;20103;-74
2023/06/17 10:04:02;;;;;;;5.07;4.50;;;;;;;;;;4989372;28;20041;-78
2023/06/17 10:06:34;;;;;;;4.65;4.25;;;;;;;;;;4997754;28;20048;-76
2023/06/17 10:09:08;;;;;;;5.50;5.03;;;;;;;;;;5008495;28;20042;-75
2023/06/17 10:11:35;;;;;;;5.70;5.20;;;;;;;;;;4965044;28;20534;-78
2023/06/17 10:14:19;;;;;;;4.35;3.97;;;;;;;;;;4980839;28;20582;-77
2023/06/17 10:16:48;;;;;;;7.07;5.75;;;;;;;;;;4976670;28;20585;-77
2023/06/17 10:19:17;;;;;;;5.35;4.85;;;;;;;;;;4984100;28;20050;-77
2023/06/17 10:21:48;;;;;;;4.32;3.97;;;;;;;;;;4972913;28;20038;-78
2023/06/17 10:24:14;;;;;;;5.70;5.13;;;;;;;;;;4959449;28;20388;-76
2023/06/17 10:26:40;;;;;;;6.60;5.10;;;;;;;;;;4974858;28;20035;-77
2023/06/17 10:29:07;;;;;;;5.18;4.72;;;;;;;;;;4975396;28;20045;-76
2023/06/17 10:31:40;;;;;;;6.03;5.07;;;;;;;;;;4984829;28;20069;-77
2023/06/17 10:34:08;;;;;;;6.15;5.65;;;;;;;;;;4982374;28;20037;-77
2023/06/17 10:36:35;;;;;;;4.75;4.35;;;;;;;;;;4978227;28;20046;-75
2023/06/17 10:39:09;;;;;;;8.82;5.70;;;;;;;;;;5003496;28;20034;-76
2023/06/17 10:41:40;;;;;;;6.47;4.93;;;;;;;;;;5013713;28;20104;-77
2023/06/17 10:44:20;;;;;;;6.05;5.45;;;;;;;;;;5014700;28;20413;-76
2023/06/17 10:46:49;;;;;;;4.07;3.70;;;;;;;;;;4976903;28;20038;-75
2023/06/17 10:49:14;;;;;;;3.95;3.65;;;;;;;;;;4980566;28;20400;-75
2023/06/17 10:51:46;;;;;;;6.00;5.40;;;;;;;;;;5003690;28;20096;-77
2023/06/17 10:54:11;;;;;;;5.80;5.22;;;;;;;;;;4998492;28;20049;-77
2023/06/17 10:56:50;;;;;;;5.95;5.45;;;;;;;;;;4992106;28;20112;-78
2023/06/17 10:59:26;;;;;;;6.03;5.40;;;;;;;;;;4995237;28;20037;-76
2023/06/17 11:01:58;;;;;;;6.00;5.10;;;;;;;;;;5000734;28;20073;-77
2023/06/17 11:04:26;;;;;;;6.07;5.43;;;;;;;;;;5006986;28;20033;-76
2023/06/17 11:06:51;;;;;;;5.90;5.40;;;;;;;;;;5007338;28;20030;-77
2023/06/17 11:09:17;;;;;;;5.90;5.40;;;;;;;;;;5010530;28;20533;-76
2023/06/17 11:11:42;;;;;;;4.78;4.28;;;;;;;;;;4986959;28;20053;-73
2023/06/17 11:14:08;;;;;;;5.07;4.68;;;;;;;;;;5008256;28;20034;-78
2023/06/17 11:16:33;;;;;;;4.20;3.90;;;;;;;;;;5007160;28;20449;-76
2023/06/17 11:18:59;;;;;;;4.80;4.35;;;;;;;;;;5012496;28;20217;-77
2023/06/17 11:21:24;;;;;;;6.25;5.70;;;;;;;;;;4996986;28;20038;-78
2023/06/17 11:23:50;;;;;;;4.45;3.95;;;;;;;;;;4982679;28;20061;-76
2023/06/17 11:26:16;;;;;;;6.55;5.80;;;;;;;;;;4998519;28;20050;-76
2023/06/17 11:28:43;;;;;;;4.72;4.32;;;;;;;;;;5012212;28;20033;-76
2023/06/17 11:31:09;;;;;;;4.40;4.00;;;;;;;;;;4996586;28;20038;-77
2023/06/17 11:33:35;;;;;;;4.50;4.10;;;;;;;;;;4996676;28;20060;-75
2023/06/17 11:36:02;;;;;;;4.25;3.92;;;;;;;;;;4995145;28;20045;-77
2023/06/17 11:38:29;;;;;;;5.28;4.82;;;;;;;;;;4988616;28;20044;-76
2023/06/17 11:40:56;;;;;;;5.13;4.40;;;;;;;;;;5003895;28;20030;-78
2023/06/17 11:43:25;;;;;;;196.63;78.65;;;;;;;;;;4995241;28;20100;-75
2023/06/17 11:45:55;;;;;;;33.45;18.05;;;;;;;;;;4993804;28;20049;-76
2023/06/17 11:48:26;;;;;;;20.88;13.90;;;;;;;;;;5008463;28;20471;-78
2023/06/17 11:50:54;;;;;;;6.50;5.90;;;;;;;;;;5005701;28;20041;-77
2023/06/17 11:53:37;;;;;;;6.28;5.70;;;;;;;;;;5009857;28;20056;-76
2023/06/17 11:56:06;;;;;;;11.55;10.15;;;;;;;;;;5000862;28;20083;-76
2023/06/17 11:58:33;;;;;;;20.63;16.48;;;;;;;;;;5008839;28;20053;-77
2023/06/17 12:01:00;;;;;;;14.10;12.73;;;;;;;;;;5005049;28;20037;-75
2023/06/17 12:03:29;;;;;;;6.57;6.07;;;;;;;;;;4991149;28;20105;-76
2023/06/17 12:05:57;;;;;;;10.85;9.75;;;;;;;;;;5004902;28;20034;-78
2023/06/17 12:08:23;;;;;;;6.68;6.05;;;;;;;;;;5007200;28;20566;-78
2023/06/17 12:10:48;;;;;;;7.90;7.10;;;;;;;;;;5016833;28;20044;-77
2023/06/17 12:13:15;;;;;;;4.82;4.45;;;;;;;;;;5020632;28;20038;-77
2023/06/17 12:15:41;;;;;;;9.15;6.97;;;;;;;;;;5010349;28;20093;-78
2023/06/17 12:18:10;;;;;;;6.18;5.57;;;;;;;;;;4992423;28;20046;-76
2023/06/17 12:20:37;;;;;;;4.47;4.10;;;;;;;;;;4997832;28;20037;-77
2023/06/17 12:23:02;;;;;;;5.97;5.38;;;;;;;;;;5016685;28;20041;-77
2023/06/17 12:25:32;;;;;;;4.95;4.50;;;;;;;;;;5013633;28;20040;-77
2023/06/17 12:27:58;;;;;;;7.35;5.78;;;;;;;;;;4984755;28;20033;-76
2023/06/17 12:30:23;;;;;;;6.97;6.13;;;;;;;;;;4988620;28;20042;-76
2023/06/17 12:32:50;;;;;;;5.30;4.80;;;;;;;;;;4998275;28;20559;-76
2023/06/17 12:35:17;;;;;;;6.97;6.22;;;;;;;;;;5014609;28;20513;-76
2023/06/17 12:37:43;;;;;;;6.25;5.65;;;;;;;;;;5007045;28;20546;-76
2023/06/17 12:40:09;;;;;;;6.88;6.13;;;;;;;;;;5000722;28;20525;-76
2023/06/17 12:42:36;;;;;;;5.60;5.13;;;;;;;;;;5013841;28;20064;-76
2023/06/17 12:45:02;;;;;;;5.88;5.28;;;;;;;;;;4999196;28;20448;-76
2023/06/17 12:47:27;;;;;;;5.65;5.15;;;;;;;;;;5013329;28;20075;-76
2023/06/17 12:49:53;;;;;;;6.55;5.95;;;;;;;;;;4997297;28;20536;-76
2023/06/17 12:52:18;;;;;;;7.88;6.45;;;;;;;;;;5015965;28;20037;-77
2023/06/17 12:54:44;;;;;;;5.50;4.97;;;;;;;;;;5022743;28;20044;-79
2023/06/17 12:57:10;;;;;;;6.93;6.20;;;;;;;;;;5015142;28;20087;-78
2023/06/17 12:59:36;;;;;;;7.45;6.13;;;;;;;;;;5014160;28;20072;-78
2023/06/17 13:02:01;;;;;;;5.55;5.05;;;;;;;;;;5010204;28;20033;-78
2023/06/17 13:04:27;;;;;;;6.18;5.57;;;;;;;;;;5001062;28;20029;-79
2023/06/17 13:06:53;;;;;;;6.72;6.13;;;;;;;;;;4997322;28;20045;-76
2023/06/17 13:09:19;;;;;;;6.35;5.85;;;;;;;;;;5006132;28;20061;-79
2023/06/17 13:11:44;;;;;;;6.93;6.28;;;;;;;;;;5000696;28;20038;-78
2023/06/17 13:14:10;;;;;;;5.13;4.75;;;;;;;;;;5009800;28;20120;-77
2023/06/17 13:16:36;;;;;;;5.07;4.68;;;;;;;;;;5014312;28;20467;-76
2023/06/17 13:19:02;;;;;;;6.30;5.70;;;;;;;;;;5016294;28;20030;-77
2023/06/17 13:21:28;;;;;;;6.70;6.18;;;;;;;;;;5015245;28;20148;-75
2023/06/17 13:23:53;;;;;;;7.63;6.07;;;;;;;;;;5007066;28;20081;-78
2023/06/17 13:26:22;;;;;;;7.63;6.88;;;;;;;;;;5004800;28;20498;-79
2023/06/17 13:28:50;;;;;;;5.47;4.97;;;;;;;;;;5013268;28;20092;-78
2023/06/17 13:31:15;;;;;;;5.05;4.65;;;;;;;;;;5018579;28;20065;-78
2023/06/17 13:33:41;;;;;;;5.60;5.10;;;;;;;;;;5007515;28;20038;-78
2023/06/17 13:36:06;;;;;;;5.68;5.18;;;;;;;;;;4992567;28;20428;-77
2023/06/17 13:38:32;;;;;;;6.40;5.40;;;;;;;;;;5018814;28;20041;-78
2023/06/17 13:40:57;;;;;;;5.30;4.80;;;;;;;;;;5001220;28;20044;-77
2023/06/17 13:43:23;;;;;;;5.95;5.40;;;;;;;;;;5006027;28;20584;-78
2023/06/17 13:45:48;;;;;;;5.38;4.72;;;;;;;;;;5008199;28;20045;-79
2023/06/17 13:48:13;;;;;;;6.82;5.20;;;;;;;;;;5013037;28;20436;-75
2023/06/17 13:50:39;;;;;;;5.90;5.40;;;;;;;;;;5021126;28;20045;-77
2023/06/17 13:53:05;;;;;;;6.53;5.75;;;;;;;;;;5021093;28;20034;-76
2023/06/17 13:55:31;;;;;;;6.75;4.63;;;;;;;;;;4978521;28;20054;-76
2023/06/17 13:57:58;;;;;;;6.40;5.80;;;;;;;;;;5006793;28;20060;-79
2023/06/17 14:00:24;;;;;;;7.22;6.03;;;;;;;;;;5004457;28;20037;-79
2023/06/17 14:02:50;;;;;;;5.60;5.05;;;;;;;;;;5019477;28;20045;-77
2023/06/17 14:05:16;;;;;;;6.38;5.28;;;;;;;;;;5000908;28;20034;-78
2023/06/17 14:07:41;;;;;;;6.47;5.75;;;;;;;;;;4996026;28;20080;-77
2023/06/17 14:10:07;;;;;;;6.57;5.95;;;;;;;;;;5007241;28;20124;-78
2023/06/17 14:12:33;;;;;;;5.68;4.93;;;;;;;;;;5018997;28;20041;-78
2023/06/17 14:14:58;;;;;;;6.80;6.07;;;;;;;;;;5020054;28;20040;-77
2023/06/17 14:17:24;;;;;;;6.80;5.43;;;;;;;;;;5007586;28;20038;-77
2023/06/17 14:19:50;;;;;;;5.47;5.03;;;;;;;;;;5007338;28;20407;-75
2023/06/17 14:22:15;;;;;;;5.53;5.05;;;;;;;;;;5009814;28;20033;-78
2023/06/17 14:24:40;;;;;;;5.25;4.85;;;;;;;;;;5017561;28;20037;-78
2023/06/17 14:27:42;;;;;;;6.10;5.50;;;;;;;;;;5022641;28;20030;-77
2023/06/17 14:30:11;;;;;;;4.95;4.55;;;;;;;;;;5000179;28;20041;-75
2023/06/17 14:32:38;;;;;;;8.75;5.68;;;;;;;;;;4987284;28;20249;-78
2023/06/17 14:35:03;;;;;;;5.25;4.80;;;;;;;;;;5018561;28;20038;-76
2023/06/17 14:37:29;;;;;;;5.53;5.00;;;;;;;;;;5022813;28;20364;-78
2023/06/17 14:39:55;;;;;;;6.72;6.00;;;;;;;;;;4988188;28;20071;-78